This is the latest recevied weather packets stored in our database for station/object XE2G-31. If no packets are shown the sender has not sent any weather packets the latest 10 day(s).
| Time | Temp. | Humidity | Pressure | Rain* | Wind** | Luminosity | Snow |
|---|---|---|---|---|---|---|---|
| 1778251022 | 21.11° C | 83% | 871 hPa | - | - | - | - |
| 1778250075 | 20.56° C | 85% | 871 hPa | - | - | - | - |
| 1778249128 | 20.56° C | 84% | 871 hPa | - | - | - | - |
| 1778248181 | 21.67° C | 81% | 871 hPa | - | - | - | - |
| 1778247235 | 22.78° C | 72% | 871 hPa | - | - | - | - |
| 1778246288 | 20.56° C | 84% | 871 hPa | - | - | - | - |
| 1778245341 | 19.44° C | 89% | 871 hPa | - | - | - | - |
| 1778244394 | 20° C | 88% | 871 hPa | - | - | - | - |
| 1778243448 | 20° C | 86% | 871 hPa | - | - | - | - |
| 1778242500 | 20.56° C | 85% | 871 hPa | - | - | - | - |
| 1778241554 | 20° C | 87% | 871 hPa | - | - | - | - |
| 1778240608 | 20° C | 85% | 871 hPa | - | - | - | - |
| 1778239660 | 20° C | 86% | 871 hPa | - | - | - | - |
| 1778238713 | 20° C | 85% | 871 hPa | - | - | - | - |
| 1778237766 | 20° C | 83% | 871 hPa | - | - | - | - |
| 1778236819 | 20° C | 84% | 871 hPa | - | - | - | - |
| 1778235873 | 20° C | 84% | 871 hPa | - | - | - | - |
| 1778234926 | 19.44° C | 86% | 871 hPa | - | - | - | - |
| 1778233979 | 19.44° C | 86% | 871 hPa | - | - | - | - |
| 1778232085 | 20° C | 87% | 871 hPa | - | - | - | - |
| 1778231138 | 20° C | 90% | 871 hPa | - | - | - | - |
| 1778230192 | 20° C | 92% | 871 hPa | - | - | - | - |
| 1778229245 | 19.44° C | 93% | 871 hPa | - | - | - | - |
| 1778228298 | 20.56° C | 90% | 871 hPa | - | - | - | - |
| 1778227351 | 21.11° C | 86% | 871 hPa | - | - | - | - |
* Rain since midnight (hover to see other rain measurements)
** Current wind speed in m/s (hover to see current wind gust speed)